createdAt,value
2024-02-19T00:02:39.411Z,100446.06
2024-02-19T00:05:24.551Z,100426.56
2024-02-19T00:08:09.599Z,100431.59
2024-02-19T00:10:54.656Z,100427.16
2024-02-19T00:13:39.859Z,100434.19
2024-02-19T00:16:24.982Z,100440.81
2024-02-19T00:19:10.813Z,100427.97
2024-02-19T00:21:55.589Z,100424.63
2024-02-19T00:24:40.736Z,100415.34
2024-02-19T00:27:26.476Z,100407.31
2024-02-19T00:30:12.168Z,100411.00
2024-02-19T00:32:57.489Z,100408.94
2024-02-19T00:35:42.164Z,100397.91
2024-02-19T00:38:27.065Z,100411.44
2024-02-19T00:41:12.890Z,100400.09
2024-02-19T00:43:57.652Z,100396.19
2024-02-19T00:46:42.694Z,100411.00
2024-02-19T00:49:28.037Z,100410.31
2024-02-19T00:52:13.203Z,100405.50
2024-02-19T00:54:58.398Z,100401.94
2024-02-19T00:57:43.473Z,100404.31
2024-02-19T01:00:28.622Z,100383.31
2024-02-19T01:03:13.905Z,100402.84
2024-02-19T01:05:59.166Z,100392.59
2024-02-19T01:08:43.902Z,100376.56
2024-02-19T01:11:28.991Z,100369.44
2024-02-19T01:14:13.854Z,100371.28
2024-02-19T01:16:58.815Z,100366.59
2024-02-19T01:19:45.493Z,100350.09
2024-02-19T01:22:30.735Z,100354.19
2024-02-19T01:25:15.818Z,100344.59
2024-02-19T01:28:00.789Z,100340.44
2024-02-19T01:30:45.937Z,100340.00
2024-02-19T01:33:31.540Z,100336.78
2024-02-19T01:36:16.693Z,100315.91
2024-02-19T01:39:02.122Z,100317.38
2024-02-19T01:41:47.160Z,100316.16
2024-02-19T01:44:32.354Z,100327.72
2024-02-19T01:47:18.529Z,100326.00
2024-02-19T01:50:04.415Z,100323.81
2024-02-19T01:52:51.496Z,100309.81
2024-02-19T01:55:38.288Z,100312.25
2024-02-19T01:58:23.550Z,100302.81
2024-02-19T02:01:08.636Z,100306.28
2024-02-19T02:03:55.031Z,100315.22
2024-02-19T02:06:40.442Z,100306.28
2024-02-19T02:09:25.519Z,100313.03
2024-02-19T02:12:12.058Z,100319.94
2024-02-19T02:14:57.196Z,100322.69
2024-02-19T02:17:44.247Z,100314.75
2024-02-19T02:20:30.904Z,100316.03
2024-02-19T02:23:16.575Z,100299.50
2024-02-19T02:26:01.435Z,100320.16
2024-02-19T02:28:46.273Z,100310.06
2024-02-19T02:31:32.550Z,100305.00
2024-02-19T02:34:17.696Z,100306.50
2024-02-19T02:37:03.057Z,100316.25
2024-02-19T02:39:47.858Z,100297.47
2024-02-19T02:42:33.799Z,100307.19
2024-02-19T02:45:18.885Z,100308.56
2024-02-19T02:48:04.185Z,100306.75
2024-02-19T02:50:48.938Z,100300.53
2024-02-19T02:53:34.092Z,100307.66
2024-02-19T02:56:22.687Z,100305.00
2024-02-19T02:59:07.468Z,100304.00
2024-02-19T03:01:52.723Z,100309.72
2024-02-19T03:04:37.579Z,100301.09
2024-02-19T03:07:25.219Z,100295.47
2024-02-19T03:10:11.876Z,100299.84
2024-02-19T03:12:56.911Z,100297.22
2024-02-19T03:15:42.021Z,100294.09
2024-02-19T03:18:27.421Z,100285.06
2024-02-19T03:21:15.988Z,100285.75
2024-02-19T03:24:00.817Z,100283.00
2024-02-19T03:26:45.754Z,100278.31
2024-02-19T03:29:30.876Z,100276.47
2024-02-19T03:32:15.774Z,100278.31
2024-02-19T03:35:00.948Z,100285.28
2024-02-19T03:37:46.943Z,100296.38
2024-02-19T03:40:31.504Z,100285.47
2024-02-19T03:43:17.708Z,100289.94
2024-02-19T03:46:04.835Z,100288.78
2024-02-19T03:48:49.881Z,100283.41
2024-02-19T03:51:34.771Z,100284.44
2024-02-19T03:54:19.680Z,100279.63
2024-02-19T03:57:05.243Z,100282.72
2024-02-19T03:59:50.554Z,100285.25
2024-02-19T04:02:35.663Z,100278.47
2024-02-19T04:05:20.680Z,100288.34
2024-02-19T04:08:07.299Z,100285.13
2024-02-19T04:10:53.765Z,100272.75
2024-02-19T04:13:38.719Z,100276.53
2024-02-19T04:16:23.458Z,100279.88
2024-02-19T04:19:09.290Z,100272.19
2024-02-19T04:21:54.429Z,100264.97
2024-02-19T04:24:39.854Z,100263.25
2024-02-19T04:27:24.674Z,100275.03
2024-02-19T04:30:09.849Z,100263.47
2024-02-19T04:32:54.572Z,100272.44
2024-02-19T04:35:39.529Z,100254.75
2024-02-19T04:38:24.574Z,100271.53
2024-02-19T04:41:09.217Z,100269.69
2024-02-19T04:43:54.213Z,100257.22
2024-02-19T04:46:39.638Z,100264.66
2024-02-19T04:49:24.770Z,100261.09
2024-02-19T04:52:09.672Z,100264.22
2024-02-19T04:54:54.571Z,100262.59
2024-02-19T04:57:40.634Z,100263.19
2024-02-19T05:00:26.770Z,100248.06
2024-02-19T05:03:13.027Z,100254.91
2024-02-19T05:05:59.634Z,100252.84
2024-02-19T05:08:44.992Z,100253.56
2024-02-19T05:11:31.009Z,100246.69
2024-02-19T05:14:15.883Z,100248.53
2024-02-19T05:17:01.145Z,100252.19
2024-02-19T05:19:47.029Z,100244.25
2024-02-19T05:22:32.244Z,100253.19
2024-02-19T05:25:18.602Z,100246.66
2024-02-19T05:28:03.922Z,100241.03
2024-02-19T05:30:49.271Z,100244.13
2024-02-19T05:33:33.942Z,100244.47
2024-02-19T05:36:19.003Z,100243.31
2024-02-19T05:39:04.988Z,100251.91
2024-02-19T05:41:49.828Z,100242.25
2024-02-19T05:44:35.200Z,100247.75
2024-02-19T05:47:21.208Z,100250.25
2024-02-19T05:50:10.196Z,100244.16
2024-02-19T05:52:55.570Z,100254.44
2024-02-19T05:55:40.700Z,100252.00
2024-02-19T05:58:26.040Z,100250.25
2024-02-19T06:01:12.253Z,100258.69
2024-02-19T06:03:57.407Z,100250.94
2024-02-19T06:06:47.164Z,100259.41
2024-02-19T06:09:32.321Z,100265.50
2024-02-19T06:12:17.505Z,100262.38
2024-02-19T06:15:03.480Z,100264.19
2024-02-19T06:17:50.273Z,100258.69
2024-02-19T06:20:37.500Z,100254.69
2024-02-19T06:23:25.375Z,100256.94
2024-02-19T06:26:13.201Z,100256.50
2024-02-19T06:29:12.150Z,100255.72
2024-02-19T06:32:04.322Z,100232.91
2024-02-19T06:35:22.252Z,100259.53
2024-02-19T06:38:07.730Z,100254.84
2024-02-19T06:41:03.291Z,100271.22
2024-02-19T06:43:58.415Z,100262.72
2024-02-19T06:46:48.522Z,100264.34
2024-02-19T06:49:35.165Z,100261.69
2024-02-19T06:52:33.206Z,100263.03
2024-02-19T06:57:56.785Z,100253.44
2024-02-19T07:00:13.091Z,100256.50
2024-02-19T07:03:16.500Z,100274.03
2024-02-19T07:06:03.784Z,100259.72
2024-02-19T07:08:53.571Z,100266.09
2024-02-19T07:12:05.541Z,100268.13
2024-02-19T07:14:58.693Z,100282.81
2024-02-19T07:17:47.150Z,100274.31
2024-02-19T07:20:37.120Z,100273.41
2024-02-19T07:23:42.260Z,100250.25
2024-02-19T07:26:52.533Z,100240.75
2024-02-19T07:29:46.186Z,100230.41
2024-02-19T07:32:32.109Z,100254.94
2024-02-19T07:35:17.566Z,100250.16
2024-02-19T07:38:06.474Z,100252.56
2024-02-19T07:40:59.789Z,100232.16
2024-02-19T07:43:45.874Z,100227.84
2024-02-19T07:46:37.958Z,100216.03
2024-02-19T07:49:30.122Z,100234.78
2024-02-19T07:52:19.510Z,100211.25
2024-02-19T07:55:12.112Z,100237.41
2024-02-19T07:58:05.094Z,100231.59
2024-02-19T08:00:51.593Z,100222.91
2024-02-19T08:03:36.857Z,100228.84
2024-02-19T08:06:26.744Z,100231.69
2024-02-19T08:09:11.978Z,100231.22
2024-02-19T08:11:59.275Z,100238.53
2024-02-19T08:14:46.991Z,100223.13
2024-02-19T08:17:36.421Z,100209.66
2024-02-19T08:20:38.194Z,100224.06
2024-02-19T08:23:33.264Z,100211.69
2024-02-19T08:26:46.849Z,100222.38
2024-02-19T08:29:33.149Z,100189.91
2024-02-19T08:32:35.305Z,100203.69
2024-02-19T08:35:23.444Z,100185.63
2024-02-19T08:38:18.801Z,100186.31
2024-02-19T08:41:04.313Z,100179.56
2024-02-19T08:43:52.655Z,100195.19
2024-02-19T08:46:37.992Z,100195.38
2024-02-19T08:49:24.946Z,100185.56
2024-02-19T08:52:19.841Z,100191.19
2024-02-19T08:55:16.387Z,100191.72
2024-02-19T08:58:01.890Z,100195.63
2024-02-19T09:01:19.632Z,100187.56
2024-02-19T09:04:09.210Z,100190.97
2024-02-19T09:07:14.979Z,100172.19
2024-02-19T09:10:09.352Z,100181.94
2024-02-19T09:16:30.793Z,100156.31
2024-02-19T09:19:46.819Z,100157.44
2024-02-19T09:22:35.944Z,100158.09
2024-02-19T09:25:27.962Z,100163.41
2024-02-19T09:28:16.478Z,100150.97
2024-02-19T09:31:21.764Z,100147.59
2024-02-19T09:34:10.382Z,100146.47
2024-02-19T09:36:56.083Z,100156.31
2024-02-19T09:40:05.379Z,100154.94
2024-02-19T09:42:54.813Z,100137.59
2024-02-19T09:45:40.736Z,100149.03
2024-02-19T09:48:26.845Z,100135.63
2024-02-19T09:51:21.662Z,100130.81
2024-02-19T09:54:23.454Z,100127.69
2024-02-19T09:57:11.106Z,100129.50
2024-02-19T10:00:05.676Z,100140.25
2024-02-19T10:02:55.345Z,100136.56
2024-02-19T10:05:48.526Z,100139.38
2024-02-19T10:08:36.103Z,100133.47
2024-02-19T10:11:21.210Z,100122.28
2024-02-19T10:14:07.039Z,100123.22
2024-02-19T10:16:52.820Z,100128.66
2024-02-19T10:19:39.219Z,100117.03
2024-02-19T10:22:25.237Z,100117.72
2024-02-19T10:25:12.631Z,100106.25
2024-02-19T10:27:57.722Z,100109.03
2024-02-19T10:30:43.756Z,100110.63
2024-02-19T10:33:28.616Z,100104.03
2024-02-19T10:36:20.342Z,100105.78
2024-02-19T10:39:06.157Z,100094.00
2024-02-19T10:41:51.213Z,100093.31
2024-02-19T10:44:36.565Z,100088.66
2024-02-19T10:47:22.474Z,100077.63
2024-02-19T10:50:09.130Z,100086.16
2024-02-19T10:52:54.450Z,100082.53
2024-02-19T10:55:52.996Z,100078.72
2024-02-19T10:59:00.160Z,100072.78
2024-02-19T11:01:48.683Z,100076.13
2024-02-19T11:04:35.282Z,100073.59
2024-02-19T11:07:22.115Z,100060.13
2024-02-19T11:10:07.877Z,100055.56
2024-02-19T11:12:53.972Z,100055.00
2024-02-19T11:15:42.839Z,100046.84
2024-02-19T11:18:30.676Z,100048.88
2024-02-19T11:21:23.721Z,100046.81
2024-02-19T11:24:09.473Z,100044.38
2024-02-19T11:26:55.917Z,100046.81
2024-02-19T11:29:47.485Z,100056.31
2024-02-19T11:32:33.469Z,100046.44
2024-02-19T11:35:18.299Z,100036.38
2024-02-19T11:38:04.217Z,100042.72
2024-02-19T11:40:50.812Z,100042.63
2024-02-19T11:43:37.066Z,100032.50
2024-02-19T11:46:23.037Z,100035.56
2024-02-19T11:49:09.484Z,100031.28
2024-02-19T11:52:04.997Z,100025.03
2024-02-19T11:54:56.026Z,100010.25
2024-02-19T11:57:43.651Z,100017.53
2024-02-19T12:00:33.180Z,100019.94
2024-02-19T12:03:18.322Z,100010.50
2024-02-19T12:06:03.930Z,99988.34
2024-02-19T12:08:49.764Z,99997.63
2024-02-19T12:11:36.666Z,99990.88
2024-02-19T12:14:21.912Z,99983.16
2024-02-19T12:17:07.822Z,99972.25
2024-02-19T12:19:57.036Z,99965.78
2024-02-19T12:22:42.784Z,99972.31
2024-02-19T12:25:27.693Z,99967.97
2024-02-19T12:28:12.934Z,99958.28
2024-02-19T12:30:57.706Z,99941.84
2024-02-19T12:33:43.475Z,99953.91
2024-02-19T12:36:28.701Z,99955.41
2024-02-19T12:39:32.494Z,99944.44
2024-02-19T12:42:17.930Z,99955.69
2024-02-19T12:45:06.208Z,99947.34
2024-02-19T12:47:52.956Z,99949.16
2024-02-19T12:50:37.852Z,99950.69
2024-02-19T12:53:22.608Z,99962.44
2024-02-19T12:56:07.837Z,99953.38
2024-02-19T12:58:52.446Z,99955.81
2024-02-19T13:01:37.765Z,99946.34
2024-02-19T13:04:26.250Z,99951.69
2024-02-19T13:07:15.770Z,99940.66
2024-02-19T13:10:01.000Z,99949.41
2024-02-19T13:12:45.836Z,99942.28
2024-02-19T13:15:30.732Z,99946.09
2024-02-19T13:18:15.665Z,99929.41
2024-02-19T13:21:00.638Z,99933.50
2024-02-19T13:23:45.740Z,99929.47
2024-02-19T13:26:30.579Z,99933.13
2024-02-19T13:29:16.206Z,99937.97
2024-02-19T13:32:01.400Z,99933.56
2024-02-19T13:34:46.370Z,99932.38
2024-02-19T13:37:31.342Z,99934.13
2024-02-19T13:40:16.446Z,99936.88
2024-02-19T13:43:01.869Z,99927.91
2024-02-19T13:46:01.372Z,99928.50
2024-02-19T13:48:58.405Z,99921.88
2024-02-19T13:51:43.456Z,99921.88
2024-02-19T13:54:28.872Z,99920.81
2024-02-19T13:57:14.211Z,99916.84
2024-02-19T13:59:59.848Z,99915.34
2024-02-19T14:02:45.067Z,99924.72
2024-02-19T14:05:31.629Z,99920.66
2024-02-19T14:08:17.907Z,99904.44
2024-02-19T14:11:02.983Z,99907.63
2024-02-19T14:13:55.029Z,99896.88
2024-02-19T14:16:46.388Z,99895.94
2024-02-19T14:19:31.363Z,99898.13
2024-02-19T14:22:16.347Z,99892.41
2024-02-19T14:25:01.584Z,99892.41
2024-02-19T14:27:47.141Z,99895.03
2024-02-19T14:30:32.567Z,99887.31
2024-02-19T14:33:17.658Z,99877.06
2024-02-19T14:36:02.978Z,99891.41
2024-02-19T14:38:48.232Z,99886.09
2024-02-19T14:41:33.179Z,99879.69
2024-02-19T14:44:17.938Z,99880.28
2024-02-19T14:47:07.069Z,99875.88
2024-02-19T14:49:52.647Z,99863.66
2024-02-19T14:52:37.794Z,99870.59
2024-02-19T14:55:22.630Z,99870.44
2024-02-19T14:58:08.245Z,99872.06
2024-02-19T15:00:53.518Z,99870.97
2024-02-19T15:03:38.529Z,99860.34
2024-02-19T15:06:23.540Z,99858.47
2024-02-19T15:09:09.913Z,99860.88
2024-02-19T15:11:54.752Z,99857.25
2024-02-19T15:14:40.542Z,99862.22
2024-02-19T15:17:26.352Z,99857.94
2024-02-19T15:20:12.582Z,99854.91
2024-02-19T15:22:58.184Z,99854.59
2024-02-19T15:25:43.315Z,99852.41
2024-02-19T15:28:28.450Z,99833.50
2024-02-19T15:31:14.063Z,99849.88
2024-02-19T15:33:59.418Z,99850.03
2024-02-19T15:36:44.434Z,99849.25
2024-02-19T15:39:31.101Z,99842.28
2024-02-19T15:42:15.957Z,99845.44
2024-02-19T15:45:00.824Z,99846.41
2024-02-19T15:47:46.366Z,99848.16
2024-02-19T15:50:32.953Z,99838.78
2024-02-19T15:53:24.783Z,99850.06
2024-02-19T15:56:14.008Z,99835.47
2024-02-19T15:58:58.685Z,99839.75
2024-02-19T16:01:45.249Z,99841.97
2024-02-19T16:04:30.649Z,99836.25
2024-02-19T16:07:15.790Z,99829.72
2024-02-19T16:10:00.771Z,99828.75
2024-02-19T16:12:45.706Z,99831.94
2024-02-19T16:15:32.520Z,99812.06
2024-02-19T16:18:29.157Z,99813.66
2024-02-19T16:21:41.399Z,99794.13
2024-02-19T16:24:40.580Z,99819.06
2024-02-19T16:27:36.077Z,99803.47
2024-02-19T16:30:21.086Z,99809.38
2024-02-19T16:33:05.917Z,99809.38
2024-02-19T16:35:51.449Z,99802.06
2024-02-19T16:38:41.654Z,99793.91
2024-02-19T16:41:26.665Z,99795.19
2024-02-19T16:44:11.754Z,99795.97
2024-02-19T16:46:56.427Z,99793.91
2024-02-19T16:49:44.127Z,99792.91
2024-02-19T16:52:29.256Z,99794.16
2024-02-19T16:55:13.941Z,99792.41
2024-02-19T16:57:59.509Z,99787.28
2024-02-19T17:00:47.575Z,99773.59
2024-02-19T17:03:33.046Z,99784.25
2024-02-19T17:06:17.909Z,99785.06
2024-02-19T17:09:06.088Z,99789.78
2024-02-19T17:11:50.719Z,99793.72
2024-02-19T17:14:35.453Z,99797.88
2024-02-19T17:17:20.137Z,99785.19
2024-02-19T17:20:05.936Z,99788.63
2024-02-19T17:22:51.898Z,99783.72
2024-02-19T17:25:37.260Z,99786.25
2024-02-19T17:28:22.894Z,99783.38
2024-02-19T17:31:08.835Z,99790.22
2024-02-19T17:33:54.092Z,99795.56
2024-02-19T17:36:39.332Z,99801.56
2024-02-19T17:39:26.684Z,99790.69
2024-02-19T17:42:11.499Z,99805.66
2024-02-19T17:44:56.815Z,99790.03
2024-02-19T17:47:41.418Z,99805.81
2024-02-19T17:50:26.672Z,99788.66
2024-02-19T17:53:12.275Z,99797.25
2024-02-19T17:55:56.919Z,99799.03
2024-02-19T17:58:42.314Z,99802.72
2024-02-19T18:01:27.497Z,99788.25
2024-02-19T18:04:13.006Z,99791.59
2024-02-19T18:07:00.787Z,99791.41
2024-02-19T18:09:45.402Z,99792.38
2024-02-19T18:12:30.490Z,99787.25
2024-02-19T18:15:21.699Z,99790.94
2024-02-19T18:18:06.553Z,99788.50
2024-02-19T18:20:52.219Z,99789.59
2024-02-19T18:23:37.481Z,99798.50
2024-02-19T18:26:24.553Z,99790.09
2024-02-19T18:29:14.679Z,99789.25
2024-02-19T18:32:01.071Z,99785.94
2024-02-19T18:34:47.158Z,99792.97
2024-02-19T18:37:32.307Z,99782.19
2024-02-19T18:40:17.007Z,99780.94
2024-02-19T18:43:03.033Z,99777.91
2024-02-19T18:45:48.183Z,99773.81
2024-02-19T18:48:34.827Z,99765.09
2024-02-19T18:51:19.568Z,99764.00
2024-02-19T18:54:04.595Z,99748.31
2024-02-19T18:56:49.140Z,99743.91
2024-02-19T18:59:37.388Z,99731.84
2024-02-19T19:02:22.359Z,99734.56
2024-02-19T19:05:07.622Z,99724.13
2024-02-19T19:07:53.015Z,99722.84
2024-02-19T19:10:37.929Z,99716.81
2024-02-19T19:13:23.466Z,99722.22
2024-02-19T19:16:08.144Z,99710.00
2024-02-19T19:18:53.232Z,99710.94
2024-02-19T19:21:38.395Z,99707.16
2024-02-19T19:24:23.530Z,99704.94
2024-02-19T19:27:08.280Z,99714.63
2024-02-19T19:29:54.088Z,99712.06
2024-02-19T19:32:39.793Z,99714.63
2024-02-19T19:35:27.182Z,99704.78
2024-02-19T19:38:12.502Z,99714.31
2024-02-19T19:40:57.671Z,99719.75
2024-02-19T19:43:42.667Z,99711.31
2024-02-19T19:46:27.845Z,99712.91
2024-02-19T19:49:17.174Z,99704.66
2024-02-19T19:52:02.025Z,99696.53
2024-02-19T19:54:47.424Z,99711.34
2024-02-19T19:57:32.440Z,99725.47
2024-02-19T20:00:20.783Z,99714.38
2024-02-19T20:03:06.062Z,99693.56
2024-02-19T20:05:51.360Z,99694.97
2024-02-19T20:08:36.339Z,99678.78
2024-02-19T20:11:22.167Z,99688.78
2024-02-19T20:14:07.452Z,99682.59
2024-02-19T20:16:52.555Z,99678.78
2024-02-19T20:19:37.481Z,99681.00
2024-02-19T20:22:22.367Z,99696.56
2024-02-19T20:25:07.975Z,99691.16
2024-02-19T20:27:54.323Z,99686.25
2024-02-19T20:30:39.354Z,99693.88
2024-02-19T20:33:24.442Z,99692.13
2024-02-19T20:36:11.081Z,99696.88
2024-02-19T20:38:57.451Z,99685.28
2024-02-19T20:41:43.336Z,99682.72
2024-02-19T20:44:28.076Z,99682.41
2024-02-19T20:47:13.703Z,99673.03
2024-02-19T20:50:00.310Z,99668.44
2024-02-19T20:52:46.352Z,99676.38
2024-02-19T20:55:31.529Z,99667.63
2024-02-19T20:58:17.014Z,99675.56
2024-02-19T21:01:02.584Z,99665.25
2024-02-19T21:03:50.065Z,99665.88
2024-02-19T21:06:35.509Z,99668.44
2024-02-19T21:09:21.275Z,99662.66
2024-02-19T21:12:07.376Z,99668.56
2024-02-19T21:14:52.343Z,99653.78
2024-02-19T21:17:37.312Z,99657.88
2024-02-19T21:20:22.284Z,99651.56
2024-02-19T21:23:07.078Z,99658.69
2024-02-19T21:25:52.381Z,99646.63
2024-02-19T21:28:37.342Z,99628.28
2024-02-19T21:31:22.208Z,99634.00
2024-02-19T21:34:10.483Z,99634.94
2024-02-19T21:36:58.127Z,99631.78
2024-02-19T21:39:43.882Z,99637.47
2024-02-19T21:42:29.804Z,99632.88
2024-02-19T21:45:16.756Z,99638.09
2024-02-19T21:48:01.800Z,99635.41
2024-02-19T21:50:46.314Z,99629.53
2024-02-19T21:53:31.478Z,99634.94
2024-02-19T21:56:16.367Z,99632.25
2024-02-19T21:59:01.620Z,99629.69
2024-02-19T22:01:46.608Z,99633.69
2024-02-19T22:04:31.685Z,99629.84
2024-02-19T22:07:16.253Z,99637.78
2024-02-19T22:10:03.554Z,99625.75
2024-02-19T22:12:48.990Z,99622.53
2024-02-19T22:15:33.836Z,99627.31
2024-02-19T22:18:19.605Z,99620.16
2024-02-19T22:21:04.949Z,99617.00
2024-02-19T22:23:50.021Z,99600.94
2024-02-19T22:26:34.894Z,99604.41
2024-02-19T22:29:19.851Z,99597.59
2024-02-19T22:32:06.117Z,99598.56
2024-02-19T22:34:51.185Z,99596.66
2024-02-19T22:37:36.605Z,99583.16
2024-02-19T22:40:21.551Z,99594.56
2024-02-19T22:43:09.791Z,99591.22
2024-02-19T22:45:54.425Z,99583.78
2024-02-19T22:48:39.338Z,99580.13
2024-02-19T22:51:24.245Z,99575.66
2024-02-19T22:54:12.241Z,99572.50
2024-02-19T22:56:57.960Z,99570.75
2024-02-19T22:59:43.919Z,99573.59
2024-02-19T23:02:28.576Z,99564.69
2024-02-19T23:05:14.471Z,99553.47
2024-02-19T23:08:02.381Z,99546.59
2024-02-19T23:10:47.172Z,99548.81
2024-02-19T23:13:32.164Z,99537.53
2024-02-19T23:16:16.760Z,99541.81
2024-02-19T23:19:01.995Z,99539.44
2024-02-19T23:21:46.762Z,99544.34
2024-02-19T23:24:31.631Z,99545.66
2024-02-19T23:27:16.779Z,99549.13
2024-02-19T23:30:02.426Z,99544.72
2024-02-19T23:32:47.657Z,99539.16
2024-02-19T23:35:33.674Z,99539.97
2024-02-19T23:38:20.900Z,99544.25
2024-02-19T23:41:06.380Z,99544.25
2024-02-19T23:43:50.886Z,99537.13
2024-02-19T23:46:35.971Z,99532.38
2024-02-19T23:49:21.063Z,99516.50
2024-02-19T23:52:06.371Z,99506.78
2024-02-19T23:54:51.088Z,99520.16
2024-02-19T23:57:38.033Z,99515.72
